METAR Data
IDs: Format: Raw Decoded Include TAF

Data at: 2206 UTC 02 Aug 2021

KRAW 022155Z AUTO 02008KT 10SM SCT050 SCT070 BKN080 26/16 A3010 RMK AO2 T02580159